createdAt,value
2019-06-07T00:00:55.657Z,997.32
2019-06-07T00:01:55.790Z,997.36
2019-06-07T00:02:55.954Z,997.36
2019-06-07T00:03:56.112Z,997.34
2019-06-07T00:04:56.287Z,997.37
2019-06-07T00:05:56.442Z,997.32
2019-06-07T00:06:56.594Z,997.33
2019-06-07T00:08:07.113Z,997.32
2019-06-07T00:08:58.898Z,997.31
2019-06-07T00:09:57.007Z,997.34
2019-06-07T00:10:57.181Z,997.30
2019-06-07T00:11:57.375Z,997.31
2019-06-07T00:12:57.516Z,997.26
2019-06-07T00:13:57.654Z,997.32
2019-06-07T00:14:57.787Z,997.30
2019-06-07T00:15:57.938Z,997.26
2019-06-07T00:16:58.110Z,997.28
2019-06-07T00:17:58.261Z,997.27
2019-06-07T00:18:58.418Z,997.27
2019-06-07T00:19:58.578Z,997.22
2019-06-07T00:20:58.747Z,997.21
2019-06-07T00:22:29.103Z,997.18
2019-06-07T00:23:01.028Z,997.18
2019-06-07T00:23:59.293Z,997.16
2019-06-07T00:24:59.444Z,997.20
2019-06-07T00:25:59.572Z,997.28
2019-06-07T00:26:59.749Z,997.19
2019-06-07T00:27:59.933Z,997.15
2019-06-07T00:29:00.137Z,997.17
2019-06-07T00:30:00.295Z,997.21
2019-06-07T00:31:00.426Z,997.15
2019-06-07T00:32:00.569Z,997.18
2019-06-07T00:33:00.741Z,997.19
2019-06-07T00:34:00.922Z,997.24
2019-06-07T00:35:01.061Z,997.16
2019-06-07T00:36:01.209Z,997.18
2019-06-07T00:37:01.373Z,997.08
2019-06-07T00:38:01.548Z,997.05
2019-06-07T00:39:01.757Z,997.05
2019-06-07T00:40:14.047Z,996.99
2019-06-07T00:41:04.037Z,996.98
2019-06-07T00:42:02.341Z,996.95
2019-06-07T00:43:02.384Z,996.88
2019-06-07T00:44:02.559Z,996.86
2019-06-07T00:45:02.736Z,996.90
2019-06-07T00:46:02.904Z,996.97
2019-06-07T00:47:03.074Z,996.97
2019-06-07T00:48:03.245Z,997.00
2019-06-07T00:49:03.442Z,996.98
2019-06-07T00:50:03.630Z,996.95
2019-06-07T00:51:03.783Z,997.02
2019-06-07T00:52:03.909Z,997.04
2019-06-07T00:53:16.883Z,997.06
2019-06-07T00:54:06.216Z,996.94
2019-06-07T00:55:04.358Z,996.96
2019-06-07T00:56:04.511Z,996.98
2019-06-07T00:57:04.681Z,996.96
2019-06-07T00:58:04.836Z,996.97
2019-06-07T00:59:11.191Z,996.99
2019-06-07T01:00:07.139Z,996.87
2019-06-07T01:01:05.244Z,996.90
2019-06-07T01:02:05.658Z,996.85
2019-06-07T01:03:06.602Z,996.86
2019-06-07T01:04:05.739Z,996.83
2019-06-07T01:05:05.920Z,996.94
2019-06-07T01:06:06.071Z,996.94
2019-06-07T01:07:06.242Z,996.86
2019-06-07T01:08:06.405Z,996.91
2019-06-07T01:09:06.596Z,996.85
2019-06-07T01:10:06.736Z,996.94
2019-06-07T01:11:06.897Z,996.87
2019-06-07T01:12:07.022Z,996.88
2019-06-07T01:13:07.163Z,996.89
2019-06-07T01:14:07.356Z,996.85
2019-06-07T01:15:07.501Z,996.86
2019-06-07T01:16:07.685Z,996.77
2019-06-07T01:17:26.554Z,996.81
2019-06-07T01:18:35.909Z,996.86
2019-06-07T01:19:10.271Z,996.85
2019-06-07T01:20:08.396Z,996.85
2019-06-07T01:21:08.583Z,996.87
2019-06-07T01:22:08.743Z,996.85
2019-06-07T01:23:51.765Z,996.90
2019-06-07T01:24:12.540Z,996.93
2019-06-07T01:25:10.193Z,996.88
2019-06-07T01:26:09.358Z,996.89
2019-06-07T01:27:09.504Z,996.88
2019-06-07T01:28:09.651Z,996.97
2019-06-07T01:29:09.837Z,996.92
2019-06-07T01:30:10.037Z,996.84
2019-06-07T01:31:10.207Z,996.90
2019-06-07T01:32:10.400Z,996.92
2019-06-07T01:33:10.549Z,996.88
2019-06-07T01:34:10.711Z,996.91
2019-06-07T01:35:10.876Z,996.87
2019-06-07T01:36:11.083Z,996.93
2019-06-07T01:37:11.156Z,996.95
2019-06-07T01:38:11.335Z,997.00
2019-06-07T01:39:11.492Z,996.94
2019-06-07T01:40:11.648Z,996.89
2019-06-07T01:41:11.836Z,996.94
2019-06-07T01:42:11.980Z,996.87
2019-06-07T01:43:12.165Z,996.87
2019-06-07T01:44:12.352Z,997.01
2019-06-07T01:45:12.511Z,996.95
2019-06-07T01:46:12.671Z,997.01
2019-06-07T01:47:12.818Z,997.03
2019-06-07T01:48:13.005Z,996.95
2019-06-07T01:49:13.142Z,996.93
2019-06-07T01:50:13.312Z,996.92
2019-06-07T01:51:13.508Z,996.91
2019-06-07T01:52:13.708Z,996.94
2019-06-07T01:53:13.885Z,996.96
2019-06-07T01:54:49.380Z,996.93
2019-06-07T01:55:16.167Z,997.00
2019-06-07T01:56:14.404Z,996.99
2019-06-07T01:57:31.038Z,997.00
2019-06-07T01:58:17.042Z,996.99
2019-06-07T01:59:14.884Z,996.95
2019-06-07T02:00:15.069Z,996.93
2019-06-07T02:01:15.236Z,996.90
2019-06-07T02:02:15.424Z,996.93
2019-06-07T02:03:15.598Z,996.94
2019-06-07T02:04:15.763Z,996.85
2019-06-07T02:05:15.918Z,996.91
2019-06-07T02:06:16.096Z,996.92
2019-06-07T02:07:16.337Z,996.91
2019-06-07T02:08:16.491Z,996.86
2019-06-07T02:09:16.696Z,996.87
2019-06-07T02:10:16.846Z,996.88
2019-06-07T02:11:18.088Z,996.83
2019-06-07T02:12:28.069Z,996.91
2019-06-07T02:13:19.455Z,996.83
2019-06-07T02:14:19.237Z,996.82
2019-06-07T02:15:21.317Z,996.80
2019-06-07T02:16:19.381Z,996.78
2019-06-07T02:17:20.104Z,996.82
2019-06-07T02:18:21.787Z,996.81
2019-06-07T02:19:19.481Z,996.85
2019-06-07T02:20:20.348Z,996.83
2019-06-07T02:21:20.988Z,996.84
2019-06-07T02:22:21.472Z,996.80
2019-06-07T02:23:20.659Z,996.84
2019-06-07T02:24:23.525Z,996.84
2019-06-07T02:25:41.931Z,996.91
2019-06-07T02:26:22.952Z,996.83
2019-06-07T02:27:20.755Z,996.87
2019-06-07T02:28:29.951Z,996.87
2019-06-07T02:29:22.925Z,996.86
2019-06-07T02:30:44.057Z,996.81
2019-06-07T02:31:25.219Z,996.85
2019-06-07T02:32:25.015Z,996.84
2019-06-07T02:33:25.815Z,996.80
2019-06-07T02:34:24.929Z,996.81
2019-06-07T02:35:25.504Z,996.81
2019-06-07T02:36:26.405Z,996.79
2019-06-07T02:37:26.366Z,996.78
2019-06-07T02:38:23.102Z,996.76
2019-06-07T02:39:25.474Z,996.76
2019-06-07T02:40:24.501Z,996.71
2019-06-07T02:41:27.800Z,996.73
2019-06-07T02:42:26.132Z,996.71
2019-06-07T02:43:27.021Z,996.72
2019-06-07T02:44:28.017Z,996.70
2019-06-07T02:45:26.041Z,996.68
2019-06-07T02:46:32.542Z,996.67
2019-06-07T02:47:28.005Z,996.66
2019-06-07T02:48:27.929Z,996.66
2019-06-07T02:49:28.979Z,996.65
2019-06-07T02:50:28.307Z,996.66
2019-06-07T02:51:31.921Z,996.68
2019-06-07T02:52:30.811Z,996.67
2019-06-07T02:53:27.750Z,996.66
2019-06-07T02:54:27.421Z,996.70
2019-06-07T02:55:30.775Z,996.65
2019-06-07T02:56:42.021Z,996.64
2019-06-07T02:57:29.376Z,996.62
2019-06-07T02:58:32.494Z,996.56
2019-06-07T02:59:57.165Z,996.51
2019-06-07T03:00:45.850Z,996.56
2019-06-07T03:01:35.959Z,996.57
2019-06-07T03:02:33.553Z,996.59
2019-06-07T03:03:31.144Z,996.56
2019-06-07T03:04:29.555Z,996.62
2019-06-07T03:05:30.522Z,996.60
2019-06-07T03:06:33.267Z,996.64
2019-06-07T03:07:30.659Z,996.65
2019-06-07T03:08:30.821Z,996.59
2019-06-07T03:09:30.878Z,996.65
2019-06-07T03:10:31.395Z,996.64
2019-06-07T03:11:31.644Z,996.61
2019-06-07T03:12:33.474Z,996.64
2019-06-07T03:13:30.573Z,996.64
2019-06-07T03:14:32.085Z,996.62
2019-06-07T03:15:35.299Z,996.62
2019-06-07T03:16:36.778Z,996.68
2019-06-07T03:17:35.267Z,996.63
2019-06-07T03:18:32.188Z,996.63
2019-06-07T03:19:34.653Z,996.61
2019-06-07T03:20:34.191Z,996.67
2019-06-07T03:21:33.637Z,996.64
2019-06-07T03:22:31.950Z,996.72
2019-06-07T03:23:33.843Z,996.69
2019-06-07T03:24:33.656Z,996.70
2019-06-07T03:25:35.741Z,996.63
2019-06-07T03:26:42.488Z,996.62
2019-06-07T03:27:41.472Z,996.65
2019-06-07T03:28:36.129Z,996.61
2019-06-07T03:29:36.056Z,996.54
2019-06-07T03:30:48.699Z,996.51
2019-06-07T03:31:45.408Z,996.50
2019-06-07T03:32:42.950Z,996.50
2019-06-07T03:33:41.487Z,996.53
2019-06-07T03:34:41.298Z,996.45
2019-06-07T03:35:37.324Z,996.45
2019-06-07T03:36:38.730Z,996.47
2019-06-07T03:37:40.736Z,996.50
2019-06-07T03:38:36.981Z,996.51
2019-06-07T03:39:37.101Z,996.54
2019-06-07T03:40:38.498Z,996.48
2019-06-07T03:41:43.819Z,996.53
2019-06-07T03:42:39.770Z,996.52
2019-06-07T03:43:38.707Z,996.54
2019-06-07T03:44:40.670Z,996.53
2019-06-07T03:45:40.972Z,996.56
2019-06-07T03:46:38.991Z,996.64
2019-06-07T03:47:41.367Z,996.61
2019-06-07T03:48:41.042Z,996.58
2019-06-07T03:49:41.726Z,996.54
2019-06-07T03:50:41.440Z,996.58
2019-06-07T03:51:39.633Z,996.57
2019-06-07T03:52:40.950Z,996.60
2019-06-07T03:53:40.873Z,996.55
2019-06-07T03:54:38.403Z,996.58
2019-06-07T03:55:41.202Z,996.54
2019-06-07T03:56:40.886Z,996.46
2019-06-07T03:58:29.364Z,996.45
2019-06-07T03:58:49.255Z,996.44
2019-06-07T03:59:41.585Z,996.41
2019-06-07T04:00:42.746Z,996.39
2019-06-07T04:01:41.198Z,996.38
2019-06-07T04:02:41.871Z,996.37
2019-06-07T04:03:47.023Z,996.33
2019-06-07T04:04:40.291Z,996.33
2019-06-07T04:05:43.272Z,996.35
2019-06-07T04:06:42.558Z,996.31
2019-06-07T04:08:01.293Z,996.28
2019-06-07T04:08:41.999Z,996.31
2019-06-07T04:09:43.059Z,996.28
2019-06-07T04:10:58.456Z,996.29
2019-06-07T04:11:41.998Z,996.31
2019-06-07T04:12:43.986Z,996.32
2019-06-07T04:13:42.703Z,996.28
2019-06-07T04:14:43.004Z,996.34
2019-06-07T04:15:41.810Z,996.33
2019-06-07T04:16:44.610Z,996.36
2019-06-07T04:18:00.804Z,996.27
2019-06-07T04:18:44.284Z,996.29
2019-06-07T04:19:43.341Z,996.24
2019-06-07T04:20:42.790Z,996.21
2019-06-07T04:21:42.935Z,996.29
2019-06-07T04:22:43.337Z,996.24
2019-06-07T04:23:45.803Z,996.23
2019-06-07T04:24:43.361Z,996.21
2019-06-07T04:26:03.582Z,996.18
2019-06-07T04:26:46.731Z,996.19
2019-06-07T04:27:43.939Z,996.12
2019-06-07T04:29:30.448Z,996.23
2019-06-07T04:30:05.809Z,996.13
2019-06-07T04:30:44.626Z,996.05
2019-06-07T04:31:43.761Z,996.03
2019-06-07T04:32:44.853Z,995.98
2019-06-07T04:33:45.053Z,996.00
2019-06-07T04:34:44.279Z,996.00
2019-06-07T04:35:45.250Z,995.93
2019-06-07T04:36:56.683Z,995.93
2019-06-07T04:37:46.807Z,995.91
2019-06-07T04:38:45.293Z,995.91
2019-06-07T04:39:45.592Z,995.81
2019-06-07T04:40:45.278Z,995.80
2019-06-07T04:41:45.415Z,995.81
2019-06-07T04:42:45.939Z,995.80
2019-06-07T04:43:46.775Z,995.85
2019-06-07T04:44:45.908Z,995.78
2019-06-07T04:45:51.176Z,995.79
2019-06-07T04:46:47.202Z,995.76
2019-06-07T04:47:46.366Z,995.79
2019-06-07T04:48:47.310Z,995.71
2019-06-07T04:49:46.702Z,995.70
2019-06-07T04:50:46.853Z,995.77
2019-06-07T04:51:47.036Z,995.77
2019-06-07T04:52:47.277Z,995.71
2019-06-07T04:53:47.331Z,995.61
2019-06-07T04:54:47.468Z,995.61
2019-06-07T04:55:47.622Z,995.53
2019-06-07T04:56:47.763Z,995.49
2019-06-07T04:57:47.906Z,995.48
2019-06-07T04:58:48.300Z,995.40
2019-06-07T05:00:32.624Z,995.42
2019-06-07T05:00:58.434Z,995.47
2019-06-07T05:01:50.582Z,995.32
2019-06-07T05:02:48.789Z,995.07
2019-06-07T05:03:49.301Z,994.86
2019-06-07T05:04:49.105Z,994.65
2019-06-07T05:05:49.276Z,994.55
2019-06-07T05:06:49.435Z,994.42
2019-06-07T05:07:49.563Z,994.42
2019-06-07T05:08:50.707Z,994.37
2019-06-07T05:09:49.882Z,994.32
2019-06-07T05:10:50.015Z,994.23
2019-06-07T05:11:50.201Z,994.16
2019-06-07T05:12:50.361Z,994.15
2019-06-07T05:13:50.612Z,994.02
2019-06-07T05:14:51.293Z,993.94
2019-06-07T05:15:50.929Z,993.95
2019-06-07T05:16:51.112Z,993.91
2019-06-07T05:17:51.274Z,993.84
2019-06-07T05:18:51.427Z,993.77
2019-06-07T05:19:51.599Z,993.68
2019-06-07T05:20:51.779Z,993.62
2019-06-07T05:22:03.714Z,993.58
2019-06-07T05:22:54.116Z,993.63
2019-06-07T05:24:10.639Z,993.57
2019-06-07T05:24:54.358Z,993.68
2019-06-07T05:25:52.616Z,993.70
2019-06-07T05:26:52.806Z,993.69
2019-06-07T05:27:52.962Z,993.79
2019-06-07T05:28:53.136Z,993.90
2019-06-07T05:30:36.086Z,993.99
2019-06-07T05:31:04.774Z,993.99
2019-06-07T05:31:55.806Z,993.90
2019-06-07T05:32:53.839Z,993.72
2019-06-07T05:33:54.000Z,993.63
2019-06-07T05:34:54.796Z,993.53
2019-06-07T05:35:54.318Z,993.52
2019-06-07T05:37:10.989Z,993.36
2019-06-07T05:37:56.677Z,993.40
2019-06-07T05:38:54.923Z,993.33
2019-06-07T05:39:55.091Z,993.48
2019-06-07T05:40:55.298Z,993.44
2019-06-07T05:41:55.499Z,993.40
2019-06-07T05:42:55.702Z,993.35
2019-06-07T05:44:12.312Z,993.35
2019-06-07T05:44:58.043Z,993.38
2019-06-07T05:45:56.163Z,993.33
2019-06-07T05:46:56.377Z,993.18
2019-06-07T05:47:56.608Z,993.19
2019-06-07T05:48:56.711Z,993.11
2019-06-07T05:49:56.936Z,993.08
2019-06-07T05:50:57.755Z,993.04
2019-06-07T05:51:58.291Z,993.10
2019-06-07T05:52:57.455Z,993.05
2019-06-07T05:53:57.625Z,993.05
2019-06-07T05:54:57.779Z,992.99
2019-06-07T05:55:58.950Z,993.01
2019-06-07T05:56:58.150Z,993.03
2019-06-07T05:57:58.266Z,993.01
2019-06-07T05:58:58.821Z,992.91
2019-06-07T05:59:58.520Z,992.95
2019-06-07T06:01:40.783Z,992.90
2019-06-07T06:02:09.469Z,992.88
2019-06-07T06:03:05.734Z,992.81
2019-06-07T06:04:01.326Z,992.79
2019-06-07T06:04:59.413Z,992.80
2019-06-07T06:05:59.556Z,992.80
2019-06-07T06:07:00.314Z,992.68
2019-06-07T06:07:59.927Z,992.67
2019-06-07T06:09:13.478Z,992.71
2019-06-07T06:10:02.241Z,992.67
2019-06-07T06:11:00.501Z,992.63
2019-06-07T06:12:02.509Z,992.61
2019-06-07T06:13:01.794Z,992.57
2019-06-07T06:14:07.389Z,992.55
2019-06-07T06:15:03.102Z,992.58
2019-06-07T06:16:02.471Z,992.57
2019-06-07T06:17:02.405Z,992.43
2019-06-07T06:18:01.532Z,992.49
2019-06-07T06:19:02.315Z,992.41
2019-06-07T06:20:02.321Z,992.45
2019-06-07T06:21:16.195Z,992.35
2019-06-07T06:22:04.105Z,992.36
2019-06-07T06:23:02.279Z,992.37
2019-06-07T06:24:03.312Z,992.37
2019-06-07T06:25:30.974Z,992.39
2019-06-07T06:26:04.732Z,992.33
2019-06-07T06:27:18.857Z,992.32
2019-06-07T06:28:11.595Z,992.30
2019-06-07T06:29:05.387Z,992.27
2019-06-07T06:30:03.650Z,992.25
2019-06-07T06:31:03.825Z,992.23
2019-06-07T06:32:40.411Z,992.16
2019-06-07T06:33:06.133Z,992.10
2019-06-07T06:34:04.246Z,992.18
2019-06-07T06:35:04.405Z,992.14
2019-06-07T06:36:04.559Z,992.13
2019-06-07T06:37:04.718Z,992.04
2019-06-07T06:38:04.905Z,992.04
2019-06-07T06:39:05.083Z,991.85
2019-06-07T06:40:05.237Z,991.98
2019-06-07T06:41:15.711Z,991.96
2019-06-07T06:42:07.531Z,991.92
2019-06-07T06:43:05.779Z,992.05
2019-06-07T06:44:05.949Z,991.99
2019-06-07T06:45:06.136Z,992.01
2019-06-07T06:46:06.295Z,991.95
2019-06-07T06:47:06.479Z,991.86
2019-06-07T06:48:06.602Z,992.00
2019-06-07T06:49:06.787Z,991.94
2019-06-07T06:50:06.931Z,991.99
2019-06-07T06:51:07.333Z,991.88
2019-06-07T06:52:07.268Z,991.88
2019-06-07T06:53:07.635Z,991.99
2019-06-07T06:54:08.582Z,991.96
2019-06-07T06:55:07.717Z,992.09
2019-06-07T06:56:07.884Z,991.95
2019-06-07T06:57:19.466Z,991.99
2019-06-07T06:58:10.266Z,991.98
2019-06-07T07:00:10.737Z,992.04
2019-06-07T07:01:09.004Z,992.01
2019-06-07T07:02:09.161Z,992.09
2019-06-07T07:03:47.755Z,992.01
2019-06-07T07:04:13.564Z,992.08
2019-06-07T07:05:10.752Z,992.05
2019-06-07T07:06:25.371Z,992.08
2019-06-07T07:07:12.055Z,992.08
2019-06-07T07:08:10.173Z,992.01
2019-06-07T07:09:10.337Z,992.06
2019-06-07T07:10:10.504Z,992.02
2019-06-07T07:11:10.712Z,992.03
2019-06-07T07:12:14.555Z,992.05
2019-06-07T07:13:12.045Z,992.05
2019-06-07T07:14:11.894Z,992.06
2019-06-07T07:15:11.353Z,992.05
2019-06-07T07:16:11.528Z,991.90
2019-06-07T07:17:11.721Z,991.90
2019-06-07T07:18:11.914Z,991.80
2019-06-07T07:19:12.080Z,991.86
2019-06-07T07:20:12.244Z,991.78
2019-06-07T07:21:12.372Z,991.82
2019-06-07T07:22:12.618Z,991.88
2019-06-07T07:23:12.795Z,991.81
2019-06-07T07:24:21.605Z,991.82
2019-06-07T07:25:15.085Z,991.87
2019-06-07T07:26:13.348Z,991.88
2019-06-07T07:27:13.545Z,991.89
2019-06-07T07:28:13.743Z,991.82
2019-06-07T07:29:13.932Z,991.88
2019-06-07T07:30:35.938Z,991.92
2019-06-07T07:31:16.332Z,991.85
2019-06-07T07:32:14.591Z,991.86
2019-06-07T07:33:14.764Z,991.72
2019-06-07T07:34:33.327Z,991.74
2019-06-07T07:35:17.173Z,991.76
2019-06-07T07:36:37.412Z,991.73
2019-06-07T07:37:17.476Z,991.79
2019-06-07T07:38:15.628Z,991.77
2019-06-07T07:39:17.292Z,991.69
2019-06-07T07:40:56.330Z,991.77
2019-06-07T07:41:17.993Z,991.77
2019-06-07T07:42:21.269Z,991.83
2019-06-07T07:43:18.257Z,991.73
2019-06-07T07:44:16.409Z,991.77
2019-06-07T07:45:16.613Z,991.62
2019-06-07T07:46:31.821Z,991.66
2019-06-07T07:47:18.925Z,991.72
2019-06-07T07:48:18.620Z,991.73
2019-06-07T07:49:18.226Z,991.57
2019-06-07T07:50:17.365Z,991.60
2019-06-07T07:51:18.347Z,991.61
2019-06-07T07:52:17.732Z,991.62
2019-06-07T07:53:17.910Z,991.61
2019-06-07T07:54:18.059Z,991.51
2019-06-07T07:55:18.316Z,991.55
2019-06-07T07:56:18.365Z,991.53
2019-06-07T07:57:19.506Z,991.46
2019-06-07T07:58:18.765Z,991.37
2019-06-07T07:59:18.880Z,991.45
2019-06-07T08:00:50.109Z,991.57
2019-06-07T08:01:21.238Z,991.46
2019-06-07T08:02:19.431Z,991.38
2019-06-07T08:03:19.907Z,991.45
2019-06-07T08:04:39.686Z,991.46
2019-06-07T08:05:29.106Z,991.34
2019-06-07T08:06:22.178Z,991.22
2019-06-07T08:07:20.397Z,991.26
2019-06-07T08:08:20.569Z,991.11
2019-06-07T08:09:20.729Z,991.16
2019-06-07T08:10:20.964Z,991.13
2019-06-07T08:11:21.850Z,991.11
2019-06-07T08:12:21.345Z,991.07
2019-06-07T08:13:26.407Z,991.01
2019-06-07T08:14:24.350Z,990.91
2019-06-07T08:15:21.714Z,991.01
2019-06-07T08:16:21.857Z,990.90
2019-06-07T08:17:22.854Z,990.87
2019-06-07T08:18:22.939Z,990.88
2019-06-07T08:19:22.343Z,990.89
2019-06-07T08:20:22.492Z,990.92
2019-06-07T08:21:26.681Z,990.87
2019-06-07T08:22:24.361Z,990.82
2019-06-07T08:23:22.975Z,990.86
2019-06-07T08:24:23.160Z,990.80
2019-06-07T08:25:23.325Z,990.73
2019-06-07T08:26:23.901Z,990.77
2019-06-07T08:27:26.789Z,990.67
2019-06-07T08:28:24.899Z,990.78
2019-06-07T08:29:24.037Z,990.64
2019-06-07T08:31:26.382Z,990.63
2019-06-07T08:32:25.364Z,990.64
2019-06-07T08:33:26.641Z,990.58
2019-06-07T08:34:25.874Z,990.60
2019-06-07T08:36:40.876Z,990.59
2019-06-07T08:36:41.312Z,990.56
2019-06-07T08:38:13.284Z,990.58
2019-06-07T08:38:46.601Z,990.68
2019-06-07T08:39:26.770Z,990.60
2019-06-07T08:40:25.942Z,990.55
2019-06-07T08:41:26.095Z,990.45
2019-06-07T08:42:37.113Z,990.49
2019-06-07T08:43:28.494Z,990.47
2019-06-07T08:44:26.773Z,990.43
2019-06-07T08:45:26.927Z,990.47
2019-06-07T08:46:27.106Z,990.39
2019-06-07T08:47:27.872Z,990.40
2019-06-07T08:48:30.003Z,990.40
2019-06-07T08:49:28.568Z,990.37
2019-06-07T08:50:27.749Z,990.35
2019-06-07T08:51:27.946Z,990.39
2019-06-07T08:52:28.107Z,990.41
2019-06-07T08:53:28.280Z,990.41
2019-06-07T08:54:28.466Z,990.29
2019-06-07T08:55:28.897Z,990.25
2019-06-07T08:56:28.846Z,990.21
2019-06-07T08:57:29.883Z,990.35
2019-06-07T08:58:29.116Z,990.29
2019-06-07T08:59:29.259Z,990.30
2019-06-07T09:00:45.423Z,990.29
2019-06-07T09:01:31.570Z,990.17
2019-06-07T09:02:29.676Z,990.23
2019-06-07T09:03:29.892Z,990.23
2019-06-07T09:04:30.071Z,990.34
2019-06-07T09:05:30.903Z,990.25
2019-06-07T09:07:32.578Z,990.29
2019-06-07T09:08:31.064Z,990.30
2019-06-07T09:09:32.113Z,990.20
2019-06-07T09:10:32.698Z,990.13
2019-06-07T09:11:31.445Z,990.23
2019-06-07T09:12:31.607Z,990.21
2019-06-07T09:13:31.783Z,990.24
2019-06-07T09:14:31.977Z,990.27
2019-06-07T09:15:32.123Z,990.27
2019-06-07T09:16:32.287Z,990.29
2019-06-07T09:17:34.209Z,990.17
2019-06-07T09:18:42.989Z,990.22
2019-06-07T09:19:34.805Z,990.21
2019-06-07T09:20:36.981Z,990.20
2019-06-07T09:21:34.878Z,990.08
2019-06-07T09:22:33.431Z,990.09
2019-06-07T09:23:33.598Z,990.13
2019-06-07T09:24:33.894Z,990.05
2019-06-07T09:25:52.395Z,990.10
2019-06-07T09:26:36.082Z,990.09
2019-06-07T09:27:34.446Z,990.14
2019-06-07T09:28:34.352Z,990.11
2019-06-07T09:29:34.504Z,990.13
2019-06-07T09:30:34.684Z,990.22
2019-06-07T09:31:51.774Z,990.13
2019-06-07T09:32:37.095Z,990.09
2019-06-07T09:33:35.201Z,990.02
2019-06-07T09:34:35.365Z,990.12
2019-06-07T09:35:35.503Z,990.08
2019-06-07T09:36:36.402Z,990.01
2019-06-07T09:38:04.228Z,990.07
2019-06-07T09:38:37.955Z,990.00
2019-06-07T09:39:36.097Z,990.01
2019-06-07T09:40:36.233Z,990.02
2019-06-07T09:41:47.367Z,990.01
2019-06-07T09:42:38.674Z,990.00
2019-06-07T09:44:39.900Z,990.00
2019-06-07T09:45:37.136Z,989.86
2019-06-07T09:46:37.292Z,989.90
2019-06-07T09:47:37.465Z,989.94
2019-06-07T09:49:39.761Z,989.93
2019-06-07T09:50:38.038Z,989.93
2019-06-07T09:51:38.079Z,989.90
2019-06-07T09:52:57.384Z,989.89
2019-06-07T09:53:40.521Z,989.96
2019-06-07T09:55:40.743Z,989.91
2019-06-07T09:56:38.976Z,989.90
2019-06-07T09:57:39.116Z,989.92
2019-06-07T09:58:54.747Z,989.89
2019-06-07T09:59:41.413Z,989.87
2019-06-07T10:00:42.329Z,989.84
2019-06-07T10:01:40.829Z,989.82
2019-06-07T10:02:39.956Z,989.81
2019-06-07T10:03:41.140Z,989.82
2019-06-07T10:04:40.260Z,989.89
2019-06-07T10:05:40.407Z,989.76
2019-06-07T10:06:40.556Z,989.79
2019-06-07T10:07:59.197Z,989.88
2019-06-07T10:09:56.994Z,989.86
2019-06-07T10:10:11.674Z,989.80
2019-06-07T10:10:43.501Z,989.73
2019-06-07T10:11:41.538Z,989.70
2019-06-07T10:12:41.762Z,989.73
2019-06-07T10:13:41.919Z,989.68
2019-06-07T10:14:45.074Z,989.74
2019-06-07T10:15:42.268Z,989.70
2019-06-07T10:16:46.838Z,989.62
2019-06-07T10:17:43.649Z,989.67
2019-06-07T10:18:42.785Z,989.67
2019-06-07T10:19:42.914Z,989.71
2019-06-07T10:20:43.106Z,989.62
2019-06-07T10:21:43.249Z,989.75
2019-06-07T10:22:43.910Z,989.66
2019-06-07T10:23:43.533Z,989.63
2019-06-07T10:24:43.667Z,989.62
2019-06-07T10:25:44.861Z,989.60
2019-06-07T10:26:44.001Z,989.62
2019-06-07T10:27:44.243Z,989.52
2019-06-07T10:28:44.429Z,989.48
2019-06-07T10:29:44.634Z,989.45
2019-06-07T10:30:44.820Z,989.52
2019-06-07T10:31:44.970Z,989.45
2019-06-07T10:32:45.110Z,989.50
2019-06-07T10:33:45.270Z,989.43
2019-06-07T10:34:45.464Z,989.42
2019-06-07T10:35:45.934Z,989.35
2019-06-07T10:36:45.838Z,989.30
2019-06-07T10:37:45.994Z,989.38
2019-06-07T10:38:46.148Z,989.32
2019-06-07T10:39:49.213Z,989.39
2019-06-07T10:40:47.491Z,989.35
2019-06-07T10:41:46.732Z,989.27
2019-06-07T10:42:46.857Z,989.27
2019-06-07T10:43:46.992Z,989.19
2019-06-07T10:44:47.140Z,989.22
2019-06-07T10:45:47.289Z,989.09
2019-06-07T10:46:47.456Z,989.28
2019-06-07T10:47:47.628Z,989.16
2019-06-07T10:48:47.789Z,989.17
2019-06-07T10:49:47.945Z,989.16
2019-06-07T10:50:48.920Z,989.15
2019-06-07T10:51:48.285Z,989.12
2019-06-07T10:52:48.944Z,989.13
2019-06-07T10:53:48.580Z,989.18
2019-06-07T10:54:48.735Z,989.23
2019-06-07T10:55:48.907Z,989.21
2019-06-07T10:56:49.112Z,989.11
2019-06-07T10:57:49.305Z,989.19
2019-06-07T10:58:49.435Z,989.06
2019-06-07T10:59:49.601Z,989.08
2019-06-07T11:00:50.419Z,989.09
2019-06-07T11:01:49.940Z,989.11
2019-06-07T11:02:50.111Z,989.18
2019-06-07T11:03:50.283Z,989.00
2019-06-07T11:04:50.460Z,989.10
2019-06-07T11:05:50.652Z,989.13
2019-06-07T11:06:50.855Z,989.10
2019-06-07T11:07:51.221Z,989.10
2019-06-07T11:08:51.237Z,989.07
2019-06-07T11:10:05.628Z,989.09
2019-06-07T11:10:53.509Z,989.10
2019-06-07T11:11:51.744Z,989.03
2019-06-07T11:12:52.422Z,989.00
2019-06-07T11:13:52.639Z,988.98
2019-06-07T11:14:53.253Z,989.07
2019-06-07T11:15:52.400Z,989.07
2019-06-07T11:16:52.586Z,989.10
2019-06-07T11:17:52.790Z,988.94
2019-06-07T11:18:52.970Z,988.88
2019-06-07T11:19:53.174Z,988.98
2019-06-07T11:20:54.329Z,988.94
2019-06-07T11:21:54.444Z,989.07
2019-06-07T11:22:53.609Z,989.03
2019-06-07T11:23:53.776Z,988.93
2019-06-07T11:24:53.963Z,988.91
2019-06-07T11:25:54.448Z,989.02
2019-06-07T11:26:54.354Z,989.03
2019-06-07T11:27:54.504Z,989.01
2019-06-07T11:28:54.665Z,989.03
2019-06-07T11:29:54.831Z,989.04
2019-06-07T11:30:55.058Z,989.03
2019-06-07T11:31:55.221Z,989.04
2019-06-07T11:32:55.387Z,989.05
2019-06-07T11:33:55.512Z,988.92
2019-06-07T11:34:55.651Z,988.87
2019-06-07T11:35:55.819Z,988.86
2019-06-07T11:36:55.989Z,988.91
2019-06-07T11:37:56.138Z,988.85
2019-06-07T11:38:56.280Z,988.90
2019-06-07T11:39:56.411Z,988.88
2019-06-07T11:40:56.597Z,988.87
2019-06-07T11:41:56.758Z,988.87
2019-06-07T11:42:56.924Z,988.85
2019-06-07T11:43:57.085Z,988.80
2019-06-07T11:44:57.464Z,988.77
2019-06-07T11:45:58.427Z,988.78
2019-06-07T11:46:57.525Z,988.76
2019-06-07T11:47:59.847Z,988.73
2019-06-07T11:48:58.882Z,988.67
2019-06-07T11:49:58.120Z,988.65
2019-06-07T11:50:58.277Z,988.63
2019-06-07T11:51:58.455Z,988.69
2019-06-07T11:52:59.451Z,988.54
2019-06-07T11:53:58.806Z,988.62
2019-06-07T11:54:58.950Z,988.63
2019-06-07T11:55:59.236Z,988.46
2019-06-07T11:56:59.418Z,988.52
2019-06-07T11:57:59.544Z,988.52
2019-06-07T11:58:59.704Z,988.36
2019-06-07T11:59:59.834Z,988.43
2019-06-07T12:00:59.953Z,988.42
2019-06-07T12:02:00.086Z,988.41
2019-06-07T12:03:00.266Z,988.44
2019-06-07T12:04:00.455Z,988.39
2019-06-07T12:05:00.637Z,988.48
2019-06-07T12:06:00.803Z,988.45
2019-06-07T12:07:00.986Z,988.35
2019-06-07T12:08:01.195Z,988.35
2019-06-07T12:09:01.317Z,988.21
2019-06-07T12:10:01.447Z,988.31
2019-06-07T12:11:01.585Z,988.23
2019-06-07T12:12:01.751Z,988.08
2019-06-07T12:13:01.928Z,988.02
2019-06-07T12:14:02.085Z,988.01
2019-06-07T12:15:02.236Z,987.94
2019-06-07T12:16:02.464Z,987.94
2019-06-07T12:17:02.593Z,987.94
2019-06-07T12:18:02.756Z,988.00
2019-06-07T12:19:02.914Z,988.02
2019-06-07T12:20:03.240Z,988.08
2019-06-07T12:21:03.241Z,988.09
2019-06-07T12:22:03.402Z,988.00
2019-06-07T12:23:03.965Z,988.03
2019-06-07T12:24:03.784Z,988.03
2019-06-07T12:25:05.953Z,988.00
2019-06-07T12:26:05.021Z,987.96
2019-06-07T12:27:04.951Z,988.02
2019-06-07T12:28:04.362Z,988.02
2019-06-07T12:29:05.452Z,987.94
2019-06-07T12:30:09.814Z,988.03
2019-06-07T12:31:06.937Z,988.08
2019-06-07T12:32:05.141Z,987.98
2019-06-07T12:33:05.316Z,987.94
2019-06-07T12:34:05.455Z,988.04
2019-06-07T12:35:06.458Z,987.94
2019-06-07T12:36:05.707Z,987.95
2019-06-07T12:37:05.906Z,987.97